Manitou Springs, Colorado
Current Conditions -  °F | °C
As of 5:14 PM on Monday 22 Dec 2014 (Local Time) from KCWN Reporting Station
Overcast Overcast  
Wind Chill: 13°   Ceiling: 300
Heat Index: 25°   Visibility: 0.25mi
Dew Point: 25°   Wind: 13mph
Humidity: 100%   Direction: 30°NNE
Pressure: 29.72"   Gusts: 20mph
Location:  38.86°N, 104.92°W
Report Text: KCWN 230014Z AUTO 03011G17KT 1/4SM M OVC003 M04/M04 A2972 RMK AO2 $
Loading
Personal Weather Stations






























Interactive Weather Map New forecast layout! Learn more

10-Day Weather Forecast

Advertisements
Track Severe Weather on mobile